Omuta, Japan
Current Conditions -  °F | °C
As of 4:00 PM on Thursday 18 Dec 2014 (Local Time) from RJFS Reporting Station
Few Clouds Few Clouds  
Wind Chill: 34°   Ceiling: Unl
Heat Index: 41°   Visibility: 6mi
Dew Point: 21°   Wind: 12mph
Humidity: 45%   Direction: 10°N
Pressure: 30.42"   Gusts: NA
Location:  33.02°N, 130.44°E
Report Text: RJFS 180700Z 01010KT 9999 FEW045 05/M06 Q1030
Loading
Personal Weather Stations






























Interactive Weather Map New forecast layout! Learn more

10-Day Weather Forecast

Advertisements
Track Severe Weather on mobile